KRNT - Renton
Updated: Sun, 21-Jan-2018 1:53pm PST

 Wind from S
Wind: S 15 mph , 24 km/h, Gust: 25 mph , 41 km/h
Temperature: 50°F , 10°C
Wind Chill: 45°F , 7°C
Dew Point: 39°F , 4°C
Humidity: 67%
Barometer: 29.84 inHg , 1010.5 hPa
Visibility: 10 miles , 16 km
Cloud details: 6500 ft
2018/01/21 21:53 KRNT 212153Z 17013G22KT 10SM FEW065 10/04 A2984 RMK AO2 SLP110 T01000039
KBFI - Seattle-Boeing
Updated: Sun, 21-Jan-2018 1:53pm PST

 Wind from S
Wind: S 13 mph , 20 km/h, Gust: 26 mph , 43 km/h
Temperature: 48°F , 9°C
Wind Chill: 43°F , 6°C
Dew Point: 39°F , 4°C
Humidity: 71%
Barometer: 29.85 inHg , 1010.8 hPa
Visibility: 10 miles , 16 km
Cloud details: 4500 ft
6500 ft
2018/01/21 21:53 KBFI 212153Z 19011G23KT 10SM SCT045 BKN065 09/04 A2985 RMK AO2 PK WND 17028/2143 SLP107 T00940039
 
KSEA - Seattle
Updated: Sun, 21-Jan-2018 1:53pm PST

 Wind from SSW
Wind: SSW 17 mph , 28 km/h, Gust: 23 mph , 37 km/h
Temperature: 48°F , 9°C
Wind Chill: 42°F , 6°C
Dew Point: 37°F , 3°C
Humidity: 66%
Barometer: 29.84 inHg , 1010.5 hPa
Visibility: 10 miles , 16 km
Cloud details: 3000 ft
5000 ft
10000 ft
2018/01/21 21:53 KSEA 212153Z 20015G20KT 10SM SCT030 BKN050 BKN100 09/03 A2984 RMK AO2 SLP111 T00890033
KSMP - Stampede Pass
Updated: Sun, 21-Jan-2018 2:16pm PST
Snow, Freezing, Fog, Overcast
Snow, Freezing, Fog, Overcast
 Wind from calm
Wind: Calm
Temperature: 30°F , -1°C
Dew Point: 28°F , -2°C
Humidity: 93%
Barometer: 29.78 inHg , 1008.5 hPa
Summary: Snow, Freezing, Fog
Visibility: 1/2 mile , 2 km
Cloud details: 500 ft
2018/01/21 22:16 KSMP 212216Z AUTO 00000KT 1/2SM SN FZFG VV005 M01/M02 A2978 RMK AO2 P0002 T10111022 FZRANO $